sensor_id;sensor_type;location;lat;lon;timestamp;P1;durP1;ratioP1;P2;durP2;ratioP2
12177;SDS011;6152;48.728;9.256;2023-02-23T00:01:43;20.98;;;13.90;;
12177;SDS011;6152;48.728;9.256;2023-02-23T00:04:09;22.90;;;14.88;;
12177;SDS011;6152;48.728;9.256;2023-02-23T00:06:36;24.40;;;14.95;;
12177;SDS011;6152;48.728;9.256;2023-02-23T00:09:03;21.98;;;14.75;;
12177;SDS011;6152;48.728;9.256;2023-02-23T00:11:36;23.30;;;15.05;;
12177;SDS011;6152;48.728;9.256;2023-02-23T00:14:02;22.08;;;14.25;;
12177;SDS011;6152;48.728;9.256;2023-02-23T00:16:28;21.17;;;14.35;;
12177;SDS011;6152;48.728;9.256;2023-02-23T00:18:56;22.10;;;14.60;;
12177;SDS011;6152;48.728;9.256;2023-02-23T00:23:55;23.20;;;14.02;;
12177;SDS011;6152;48.728;9.256;2023-02-23T00:26:28;19.55;;;13.90;;
12177;SDS011;6152;48.728;9.256;2023-02-23T00:28:57;23.10;;;14.88;;
12177;SDS011;6152;48.728;9.256;2023-02-23T00:31:25;21.45;;;13.40;;
12177;SDS011;6152;48.728;9.256;2023-02-23T00:33:52;23.77;;;13.93;;
12177;SDS011;6152;48.728;9.256;2023-02-23T00:36:19;21.63;;;15.07;;
12177;SDS011;6152;48.728;9.256;2023-02-23T00:38:47;18.95;;;14.52;;
12177;SDS011;6152;48.728;9.256;2023-02-23T00:41:18;24.00;;;14.90;;
12177;SDS011;6152;48.728;9.256;2023-02-23T00:43:47;20.83;;;14.05;;
12177;SDS011;6152;48.728;9.256;2023-02-23T00:46:14;21.83;;;14.05;;
12177;SDS011;6152;48.728;9.256;2023-02-23T00:48:42;22.48;;;13.60;;
12177;SDS011;6152;48.728;9.256;2023-02-23T00:51:10;20.08;;;13.82;;
12177;SDS011;6152;48.728;9.256;2023-02-23T00:53:36;22.70;;;14.90;;
12177;SDS011;6152;48.728;9.256;2023-02-23T00:56:03;19.08;;;14.07;;
12177;SDS011;6152;48.728;9.256;2023-02-23T00:58:30;26.25;;;15.57;;
12177;SDS011;6152;48.728;9.256;2023-02-23T01:00:56;24.73;;;14.80;;
12177;SDS011;6152;48.728;9.256;2023-02-23T01:03:23;22.95;;;15.35;;
12177;SDS011;6152;48.728;9.256;2023-02-23T01:05:50;24.20;;;15.93;;
12177;SDS011;6152;48.728;9.256;2023-02-23T01:08:16;20.80;;;15.85;;
12177;SDS011;6152;48.728;9.256;2023-02-23T01:10:43;22.40;;;15.30;;
12177;SDS011;6152;48.728;9.256;2023-02-23T01:13:17;22.92;;;15.32;;
12177;SDS011;6152;48.728;9.256;2023-02-23T01:15:44;20.77;;;14.85;;
12177;SDS011;6152;48.728;9.256;2023-02-23T01:18:12;21.80;;;15.82;;
12177;SDS011;6152;48.728;9.256;2023-02-23T01:20:41;22.85;;;15.45;;
12177;SDS011;6152;48.728;9.256;2023-02-23T01:23:09;24.40;;;15.60;;
12177;SDS011;6152;48.728;9.256;2023-02-23T01:25:42;22.35;;;15.55;;
12177;SDS011;6152;48.728;9.256;2023-02-23T01:28:09;24.27;;;14.45;;
12177;SDS011;6152;48.728;9.256;2023-02-23T01:30:37;24.10;;;15.45;;
12177;SDS011;6152;48.728;9.256;2023-02-23T01:33:03;22.63;;;15.55;;
12177;SDS011;6152;48.728;9.256;2023-02-23T01:35:30;22.48;;;15.30;;
12177;SDS011;6152;48.728;9.256;2023-02-23T01:37:59;26.52;;;16.02;;
12177;SDS011;6152;48.728;9.256;2023-02-23T01:40:26;25.52;;;15.35;;
12177;SDS011;6152;48.728;9.256;2023-02-23T01:42:53;26.33;;;16.02;;
12177;SDS011;6152;48.728;9.256;2023-02-23T01:47:59;21.85;;;15.55;;
12177;SDS011;6152;48.728;9.256;2023-02-23T01:50:49;25.15;;;15.90;;
12177;SDS011;6152;48.728;9.256;2023-02-23T01:53:28;24.20;;;16.10;;
12177;SDS011;6152;48.728;9.256;2023-02-23T01:55:59;23.42;;;16.50;;
12177;SDS011;6152;48.728;9.256;2023-02-23T01:58:40;23.35;;;16.65;;
12177;SDS011;6152;48.728;9.256;2023-02-23T02:01:09;23.27;;;16.08;;
12177;SDS011;6152;48.728;9.256;2023-02-23T02:03:56;22.60;;;16.05;;
12177;SDS011;6152;48.728;9.256;2023-02-23T02:06:25;23.13;;;15.75;;
12177;SDS011;6152;48.728;9.256;2023-02-23T02:08:53;22.77;;;16.67;;
12177;SDS011;6152;48.728;9.256;2023-02-23T02:11:30;22.43;;;15.90;;
12177;SDS011;6152;48.728;9.256;2023-02-23T02:14:02;26.05;;;16.15;;
12177;SDS011;6152;48.728;9.256;2023-02-23T02:38:46;24.88;;;16.80;;
12177;SDS011;6152;48.728;9.256;2023-02-23T02:41:33;25.50;;;17.70;;
12177;SDS011;6152;48.728;9.256;2023-02-23T02:44:16;22.80;;;16.27;;
12177;SDS011;6152;48.728;9.256;2023-02-23T02:47:16;27.20;;;16.50;;
12177;SDS011;6152;48.728;9.256;2023-02-23T02:50:03;27.80;;;17.43;;
12177;SDS011;6152;48.728;9.256;2023-02-23T02:52:38;25.67;;;16.58;;
12177;SDS011;6152;48.728;9.256;2023-02-23T02:55:17;22.83;;;16.45;;
12177;SDS011;6152;48.728;9.256;2023-02-23T02:57:48;24.73;;;16.17;;
12177;SDS011;6152;48.728;9.256;2023-02-23T03:00:18;24.25;;;16.52;;
12177;SDS011;6152;48.728;9.256;2023-02-23T03:03:05;20.95;;;15.70;;
12177;SDS011;6152;48.728;9.256;2023-02-23T03:06:09;24.10;;;16.45;;
12177;SDS011;6152;48.728;9.256;2023-02-23T03:08:57;24.55;;;15.57;;
12177;SDS011;6152;48.728;9.256;2023-02-23T03:12:10;24.13;;;16.25;;
12177;SDS011;6152;48.728;9.256;2023-02-23T03:15:23;22.85;;;16.95;;
12177;SDS011;6152;48.728;9.256;2023-02-23T03:18:32;24.13;;;16.13;;
12177;SDS011;6152;48.728;9.256;2023-02-23T03:21:32;23.77;;;17.25;;
12177;SDS011;6152;48.728;9.256;2023-02-23T03:24:35;24.90;;;17.77;;
12177;SDS011;6152;48.728;9.256;2023-02-23T03:27:35;25.40;;;16.92;;
12177;SDS011;6152;48.728;9.256;2023-02-23T03:33:53;23.00;;;16.33;;
12177;SDS011;6152;48.728;9.256;2023-02-23T03:36:42;24.53;;;16.40;;
12177;SDS011;6152;48.728;9.256;2023-02-23T03:39:36;29.53;;;18.23;;
12177;SDS011;6152;48.728;9.256;2023-02-23T03:42:23;24.40;;;17.07;;
12177;SDS011;6152;48.728;9.256;2023-02-23T03:45:14;25.20;;;16.50;;
12177;SDS011;6152;48.728;9.256;2023-02-23T03:48:03;24.93;;;17.33;;
12177;SDS011;6152;48.728;9.256;2023-02-23T03:50:52;24.97;;;16.47;;
12177;SDS011;6152;48.728;9.256;2023-02-23T03:57:10;25.03;;;16.90;;
12177;SDS011;6152;48.728;9.256;2023-02-23T03:59:59;27.40;;;17.67;;
12177;SDS011;6152;48.728;9.256;2023-02-23T04:02:48;22.27;;;15.67;;
12177;SDS011;6152;48.728;9.256;2023-02-23T04:05:37;25.53;;;17.13;;
12177;SDS011;6152;48.728;9.256;2023-02-23T04:08:26;24.47;;;17.43;;
12177;SDS011;6152;48.728;9.256;2023-02-23T04:14:33;25.83;;;17.33;;
12177;SDS011;6152;48.728;9.256;2023-02-23T04:17:09;24.83;;;16.70;;
12177;SDS011;6152;48.728;9.256;2023-02-23T04:19:36;25.85;;;17.67;;
12177;SDS011;6152;48.728;9.256;2023-02-23T04:22:02;25.33;;;16.95;;
12177;SDS011;6152;48.728;9.256;2023-02-23T04:24:29;24.90;;;17.33;;
12177;SDS011;6152;48.728;9.256;2023-02-23T04:26:55;25.23;;;17.15;;
12177;SDS011;6152;48.728;9.256;2023-02-23T04:29:21;27.80;;;18.05;;
12177;SDS011;6152;48.728;9.256;2023-02-23T04:31:48;25.77;;;17.35;;
12177;SDS011;6152;48.728;9.256;2023-02-23T04:34:14;26.95;;;17.98;;
12177;SDS011;6152;48.728;9.256;2023-02-23T04:36:40;24.13;;;17.40;;
12177;SDS011;6152;48.728;9.256;2023-02-23T04:39:06;26.17;;;17.85;;
12177;SDS011;6152;48.728;9.256;2023-02-23T04:41:32;27.73;;;18.38;;
12177;SDS011;6152;48.728;9.256;2023-02-23T04:43:58;26.05;;;17.55;;
12177;SDS011;6152;48.728;9.256;2023-02-23T04:46:24;26.17;;;17.50;;
12177;SDS011;6152;48.728;9.256;2023-02-23T04:48:50;24.48;;;17.98;;
12177;SDS011;6152;48.728;9.256;2023-02-23T04:51:17;28.33;;;17.52;;
12177;SDS011;6152;48.728;9.256;2023-02-23T04:53:43;30.15;;;18.52;;
12177;SDS011;6152;48.728;9.256;2023-02-23T04:56:09;28.08;;;18.10;;
12177;SDS011;6152;48.728;9.256;2023-02-23T04:58:36;25.95;;;17.70;;
12177;SDS011;6152;48.728;9.256;2023-02-23T05:01:08;25.13;;;17.45;;
12177;SDS011;6152;48.728;9.256;2023-02-23T05:03:34;25.60;;;17.25;;
12177;SDS011;6152;48.728;9.256;2023-02-23T05:06:00;28.35;;;18.63;;
12177;SDS011;6152;48.728;9.256;2023-02-23T05:08:26;27.75;;;16.95;;
12177;SDS011;6152;48.728;9.256;2023-02-23T05:10:52;29.10;;;18.10;;
12177;SDS011;6152;48.728;9.256;2023-02-23T05:13:18;28.88;;;18.67;;
12177;SDS011;6152;48.728;9.256;2023-02-23T05:15:45;27.58;;;18.45;;
12177;SDS011;6152;48.728;9.256;2023-02-23T05:18:11;29.55;;;17.42;;
12177;SDS011;6152;48.728;9.256;2023-02-23T05:20:37;27.08;;;18.05;;
12177;SDS011;6152;48.728;9.256;2023-02-23T05:23:05;26.27;;;17.45;;
12177;SDS011;6152;48.728;9.256;2023-02-23T05:25:32;23.83;;;17.13;;
12177;SDS011;6152;48.728;9.256;2023-02-23T05:27:58;30.40;;;18.80;;
12177;SDS011;6152;48.728;9.256;2023-02-23T05:30:24;26.02;;;17.42;;
12177;SDS011;6152;48.728;9.256;2023-02-23T05:32:50;27.00;;;17.63;;
12177;SDS011;6152;48.728;9.256;2023-02-23T05:35:17;28.27;;;18.38;;
12177;SDS011;6152;48.728;9.256;2023-02-23T05:37:43;27.80;;;18.23;;
12177;SDS011;6152;48.728;9.256;2023-02-23T05:40:09;25.85;;;17.15;;
12177;SDS011;6152;48.728;9.256;2023-02-23T05:42:37;27.42;;;18.33;;
12177;SDS011;6152;48.728;9.256;2023-02-23T05:45:04;26.65;;;17.67;;
12177;SDS011;6152;48.728;9.256;2023-02-23T05:47:31;24.42;;;16.35;;
12177;SDS011;6152;48.728;9.256;2023-02-23T05:50:03;28.23;;;17.45;;
12177;SDS011;6152;48.728;9.256;2023-02-23T05:52:30;31.08;;;17.10;;
12177;SDS011;6152;48.728;9.256;2023-02-23T05:54:57;30.40;;;18.30;;
12177;SDS011;6152;48.728;9.256;2023-02-23T05:57:23;24.58;;;16.67;;
12177;SDS011;6152;48.728;9.256;2023-02-23T05:59:49;27.77;;;17.55;;
12177;SDS011;6152;48.728;9.256;2023-02-23T06:02:15;25.50;;;17.90;;
12177;SDS011;6152;48.728;9.256;2023-02-23T06:04:45;25.35;;;17.08;;
12177;SDS011;6152;48.728;9.256;2023-02-23T06:07:11;26.58;;;18.67;;
12177;SDS011;6152;48.728;9.256;2023-02-23T06:09:37;29.95;;;17.48;;
12177;SDS011;6152;48.728;9.256;2023-02-23T06:12:03;26.83;;;17.33;;
12177;SDS011;6152;48.728;9.256;2023-02-23T06:14:29;25.77;;;16.58;;
12177;SDS011;6152;48.728;9.256;2023-02-23T06:16:56;27.48;;;18.48;;
12177;SDS011;6152;48.728;9.256;2023-02-23T06:19:22;27.35;;;17.73;;
12177;SDS011;6152;48.728;9.256;2023-02-23T06:21:48;27.60;;;16.42;;
12177;SDS011;6152;48.728;9.256;2023-02-23T06:24:14;27.92;;;17.63;;
12177;SDS011;6152;48.728;9.256;2023-02-23T06:26:40;28.55;;;16.83;;
12177;SDS011;6152;48.728;9.256;2023-02-23T06:29:06;24.35;;;17.17;;
12177;SDS011;6152;48.728;9.256;2023-02-23T06:31:32;27.98;;;16.60;;
12177;SDS011;6152;48.728;9.256;2023-02-23T06:33:58;26.23;;;16.80;;
12177;SDS011;6152;48.728;9.256;2023-02-23T06:36:24;25.42;;;16.77;;
12177;SDS011;6152;48.728;9.256;2023-02-23T06:38:54;26.83;;;16.35;;
12177;SDS011;6152;48.728;9.256;2023-02-23T06:41:22;27.15;;;16.55;;
12177;SDS011;6152;48.728;9.256;2023-02-23T06:43:49;26.48;;;17.30;;
12177;SDS011;6152;48.728;9.256;2023-02-23T06:46:16;25.05;;;15.70;;
12177;SDS011;6152;48.728;9.256;2023-02-23T06:48:42;25.60;;;16.50;;
12177;SDS011;6152;48.728;9.256;2023-02-23T06:51:08;29.65;;;17.15;;
12177;SDS011;6152;48.728;9.256;2023-02-23T06:53:35;24.65;;;16.15;;
12177;SDS011;6152;48.728;9.256;2023-02-23T06:56:02;24.70;;;15.25;;
12177;SDS011;6152;48.728;9.256;2023-02-23T06:58:28;22.63;;;15.55;;
12177;SDS011;6152;48.728;9.256;2023-02-23T07:00:55;23.15;;;14.82;;
12177;SDS011;6152;48.728;9.256;2023-02-23T07:03:22;23.52;;;16.27;;
12177;SDS011;6152;48.728;9.256;2023-02-23T07:05:49;25.67;;;16.15;;
12177;SDS011;6152;48.728;9.256;2023-02-23T07:08:16;24.73;;;16.42;;
12177;SDS011;6152;48.728;9.256;2023-02-23T07:10:43;26.08;;;16.88;;
12177;SDS011;6152;48.728;9.256;2023-02-23T07:13:10;29.42;;;16.88;;
12177;SDS011;6152;48.728;9.256;2023-02-23T07:15:39;24.63;;;16.02;;
12177;SDS011;6152;48.728;9.256;2023-02-23T07:18:05;25.05;;;16.73;;
12177;SDS011;6152;48.728;9.256;2023-02-23T07:20:32;31.02;;;18.15;;
12177;SDS011;6152;48.728;9.256;2023-02-23T07:22:59;26.63;;;17.75;;
12177;SDS011;6152;48.728;9.256;2023-02-23T07:25:28;26.77;;;17.45;;
12177;SDS011;6152;48.728;9.256;2023-02-23T07:27:55;25.40;;;17.90;;
12177;SDS011;6152;48.728;9.256;2023-02-23T07:30:23;29.50;;;18.40;;
12177;SDS011;6152;48.728;9.256;2023-02-23T07:32:50;24.80;;;16.95;;
12177;SDS011;6152;48.728;9.256;2023-02-23T07:35:17;27.63;;;18.25;;
12177;SDS011;6152;48.728;9.256;2023-02-23T07:37:43;27.20;;;17.75;;
12177;SDS011;6152;48.728;9.256;2023-02-23T07:40:10;27.65;;;18.23;;
12177;SDS011;6152;48.728;9.256;2023-02-23T07:42:37;28.77;;;19.33;;
12177;SDS011;6152;48.728;9.256;2023-02-23T07:45:03;26.58;;;18.30;;
12177;SDS011;6152;48.728;9.256;2023-02-23T07:47:30;30.55;;;18.88;;
12177;SDS011;6152;48.728;9.256;2023-02-23T07:49:59;28.63;;;18.98;;
12177;SDS011;6152;48.728;9.256;2023-02-23T07:52:31;28.88;;;18.92;;
12177;SDS011;6152;48.728;9.256;2023-02-23T07:54:58;29.08;;;18.42;;
12177;SDS011;6152;48.728;9.256;2023-02-23T07:57:24;27.50;;;18.67;;
12177;SDS011;6152;48.728;9.256;2023-02-23T07:59:50;26.08;;;18.25;;
12177;SDS011;6152;48.728;9.256;2023-02-23T08:02:17;32.05;;;18.88;;
12177;SDS011;6152;48.728;9.256;2023-02-23T08:04:43;24.10;;;16.63;;
12177;SDS011;6152;48.728;9.256;2023-02-23T08:07:09;29.45;;;18.13;;
12177;SDS011;6152;48.728;9.256;2023-02-23T08:09:35;24.55;;;17.52;;
12177;SDS011;6152;48.728;9.256;2023-02-23T08:12:02;26.08;;;17.85;;
12177;SDS011;6152;48.728;9.256;2023-02-23T08:14:28;30.23;;;18.20;;
12177;SDS011;6152;48.728;9.256;2023-02-23T08:16:55;24.75;;;16.25;;
12177;SDS011;6152;48.728;9.256;2023-02-23T08:19:21;22.77;;;15.82;;
12177;SDS011;6152;48.728;9.256;2023-02-23T08:21:50;20.95;;;14.50;;
12177;SDS011;6152;48.728;9.256;2023-02-23T08:24:17;22.90;;;14.15;;
12177;SDS011;6152;48.728;9.256;2023-02-23T08:26:43;21.67;;;13.38;;
12177;SDS011;6152;48.728;9.256;2023-02-23T08:29:09;18.40;;;13.10;;
12177;SDS011;6152;48.728;9.256;2023-02-23T08:31:35;17.33;;;12.90;;
12177;SDS011;6152;48.728;9.256;2023-02-23T08:34:01;19.50;;;13.68;;
12177;SDS011;6152;48.728;9.256;2023-02-23T08:36:27;26.15;;;14.48;;
12177;SDS011;6152;48.728;9.256;2023-02-23T08:38:54;24.17;;;15.52;;
12177;SDS011;6152;48.728;9.256;2023-02-23T08:41:20;23.35;;;15.98;;
12177;SDS011;6152;48.728;9.256;2023-02-23T08:43:46;22.42;;;15.05;;
12177;SDS011;6152;48.728;9.256;2023-02-23T08:46:13;20.13;;;15.00;;
12177;SDS011;6152;48.728;9.256;2023-02-23T08:48:42;21.42;;;14.77;;
12177;SDS011;6152;48.728;9.256;2023-02-23T08:51:08;19.67;;;13.52;;
12177;SDS011;6152;48.728;9.256;2023-02-23T08:53:34;19.05;;;13.52;;
12177;SDS011;6152;48.728;9.256;2023-02-23T08:56:02;19.25;;;14.13;;
12177;SDS011;6152;48.728;9.256;2023-02-23T08:58:30;21.25;;;13.73;;
12177;SDS011;6152;48.728;9.256;2023-02-23T09:00:57;20.05;;;13.70;;
12177;SDS011;6152;48.728;9.256;2023-02-23T09:03:24;17.27;;;12.50;;
12177;SDS011;6152;48.728;9.256;2023-02-23T09:05:52;20.77;;;13.32;;
12177;SDS011;6152;48.728;9.256;2023-02-23T09:08:19;15.02;;;10.93;;
12177;SDS011;6152;48.728;9.256;2023-02-23T09:10:46;14.40;;;10.48;;
12177;SDS011;6152;48.728;9.256;2023-02-23T09:13:12;16.73;;;10.95;;
12177;SDS011;6152;48.728;9.256;2023-02-23T09:15:39;13.40;;;10.25;;
12177;SDS011;6152;48.728;9.256;2023-02-23T09:18:06;13.48;;;9.50;;
12177;SDS011;6152;48.728;9.256;2023-02-23T09:20:39;12.57;;;9.93;;
12177;SDS011;6152;48.728;9.256;2023-02-23T09:23:06;15.25;;;10.25;;
12177;SDS011;6152;48.728;9.256;2023-02-23T09:25:32;15.38;;;8.82;;
12177;SDS011;6152;48.728;9.256;2023-02-23T09:28:03;10.80;;;8.70;;
12177;SDS011;6152;48.728;9.256;2023-02-23T09:30:29;15.93;;;9.50;;
12177;SDS011;6152;48.728;9.256;2023-02-23T09:32:55;15.13;;;9.23;;
12177;SDS011;6152;48.728;9.256;2023-02-23T09:35:22;12.13;;;8.98;;
12177;SDS011;6152;48.728;9.256;2023-02-23T09:37:50;13.95;;;9.40;;
12177;SDS011;6152;48.728;9.256;2023-02-23T09:40:27;16.33;;;9.40;;
12177;SDS011;6152;48.728;9.256;2023-02-23T09:42:59;12.07;;;9.27;;
12177;SDS011;6152;48.728;9.256;2023-02-23T09:48:32;12.63;;;9.02;;
12177;SDS011;6152;48.728;9.256;2023-02-23T09:50:59;12.73;;;9.15;;
12177;SDS011;6152;48.728;9.256;2023-02-23T09:55:58;13.02;;;8.95;;
12177;SDS011;6152;48.728;9.256;2023-02-23T09:58:28;13.63;;;9.05;;
12177;SDS011;6152;48.728;9.256;2023-02-23T10:03:32;15.45;;;8.93;;
12177;SDS011;6152;48.728;9.256;2023-02-23T10:06:03;15.13;;;9.60;;
12177;SDS011;6152;48.728;9.256;2023-02-23T10:11:31;13.45;;;7.60;;
12177;SDS011;6152;48.728;9.256;2023-02-23T10:17:41;12.55;;;8.38;;
12177;SDS011;6152;48.728;9.256;2023-02-23T10:23:20;12.15;;;7.85;;
12177;SDS011;6152;48.728;9.256;2023-02-23T10:25:55;12.63;;;6.57;;
12177;SDS011;6152;48.728;9.256;2023-02-23T10:28:24;7.70;;;5.70;;
12177;SDS011;6152;48.728;9.256;2023-02-23T10:30:53;10.23;;;6.43;;
12177;SDS011;6152;48.728;9.256;2023-02-23T10:33:25;13.65;;;8.05;;
12177;SDS011;6152;48.728;9.256;2023-02-23T10:36:10;7.30;;;6.30;;
12177;SDS011;6152;48.728;9.256;2023-02-23T10:38:54;9.45;;;7.25;;
12177;SDS011;6152;48.728;9.256;2023-02-23T10:41:20;13.10;;;8.18;;
12177;SDS011;6152;48.728;9.256;2023-02-23T10:43:47;15.40;;;8.88;;
12177;SDS011;6152;48.728;9.256;2023-02-23T10:46:16;15.48;;;8.27;;
12177;SDS011;6152;48.728;9.256;2023-02-23T10:48:46;18.33;;;8.68;;
12177;SDS011;6152;48.728;9.256;2023-02-23T10:51:23;9.77;;;6.13;;
12177;SDS011;6152;48.728;9.256;2023-02-23T10:53:57;11.43;;;6.50;;
12177;SDS011;6152;48.728;9.256;2023-02-23T10:56:23;11.15;;;5.57;;
12177;SDS011;6152;48.728;9.256;2023-02-23T10:58:51;11.95;;;5.65;;
12177;SDS011;6152;48.728;9.256;2023-02-23T11:06:49;8.63;;;5.03;;
12177;SDS011;6152;48.728;9.256;2023-02-23T11:09:24;6.28;;;3.95;;
12177;SDS011;6152;48.728;9.256;2023-02-23T11:11:57;8.30;;;4.82;;
12177;SDS011;6152;48.728;9.256;2023-02-23T11:14:25;11.27;;;4.97;;
12177;SDS011;6152;48.728;9.256;2023-02-23T11:16:52;5.57;;;3.50;;
12177;SDS011;6152;48.728;9.256;2023-02-23T11:19:34;6.90;;;3.38;;
12177;SDS011;6152;48.728;9.256;2023-02-23T11:22:02;9.52;;;4.28;;
12177;SDS011;6152;48.728;9.256;2023-02-23T11:24:36;8.88;;;3.33;;
12177;SDS011;6152;48.728;9.256;2023-02-23T11:27:06;5.97;;;3.10;;
12177;SDS011;6152;48.728;9.256;2023-02-23T11:29:43;6.47;;;3.60;;
12177;SDS011;6152;48.728;9.256;2023-02-23T11:32:15;13.98;;;3.58;;
12177;SDS011;6152;48.728;9.256;2023-02-23T11:34:45;10.13;;;4.88;;
12177;SDS011;6152;48.728;9.256;2023-02-23T11:42:22;10.55;;;4.88;;
12177;SDS011;6152;48.728;9.256;2023-02-23T11:44:51;6.43;;;3.05;;
12177;SDS011;6152;48.728;9.256;2023-02-23T11:47:29;8.45;;;3.47;;
12177;SDS011;6152;48.728;9.256;2023-02-23T11:49:59;5.25;;;2.40;;
12177;SDS011;6152;48.728;9.256;2023-02-23T11:52:27;3.78;;;2.33;;
12177;SDS011;6152;48.728;9.256;2023-02-23T11:54:59;3.88;;;1.98;;
12177;SDS011;6152;48.728;9.256;2023-02-23T11:57:30;6.75;;;2.53;;
12177;SDS011;6152;48.728;9.256;2023-02-23T11:59:59;7.28;;;2.65;;
12177;SDS011;6152;48.728;9.256;2023-02-23T12:02:45;13.90;;;3.30;;
12177;SDS011;6152;48.728;9.256;2023-02-23T12:10:36;7.47;;;3.53;;
12177;SDS011;6152;48.728;9.256;2023-02-23T12:13:18;5.72;;;3.42;;
12177;SDS011;6152;48.728;9.256;2023-02-23T12:21:47;5.88;;;2.30;;
12177;SDS011;6152;48.728;9.256;2023-02-23T12:30:04;14.05;;;3.75;;
12177;SDS011;6152;48.728;9.256;2023-02-23T12:32:53;13.18;;;3.15;;
12177;SDS011;6152;48.728;9.256;2023-02-23T12:38:11;4.28;;;2.63;;
12177;SDS011;6152;48.728;9.256;2023-02-23T12:40:43;10.25;;;2.75;;
12177;SDS011;6152;48.728;9.256;2023-02-23T12:43:15;5.68;;;3.20;;
12177;SDS011;6152;48.728;9.256;2023-02-23T12:45:50;12.15;;;3.75;;
12177;SDS011;6152;48.728;9.256;2023-02-23T12:51:11;5.78;;;3.17;;
12177;SDS011;6152;48.728;9.256;2023-02-23T12:54:12;7.43;;;2.85;;
12177;SDS011;6152;48.728;9.256;2023-02-23T12:56:47;3.45;;;2.42;;
12177;SDS011;6152;48.728;9.256;2023-02-23T12:59:34;6.80;;;3.22;;
12177;SDS011;6152;48.728;9.256;2023-02-23T13:05:19;3.65;;;3.00;;
12177;SDS011;6152;48.728;9.256;2023-02-23T13:13:29;5.60;;;3.80;;
12177;SDS011;6152;48.728;9.256;2023-02-23T13:16:24;4.95;;;3.50;;
12177;SDS011;6152;48.728;9.256;2023-02-23T13:24:38;5.28;;;3.15;;
12177;SDS011;6152;48.728;9.256;2023-02-23T13:32:09;6.00;;;3.25;;
12177;SDS011;6152;48.728;9.256;2023-02-23T13:34:50;4.90;;;3.05;;
12177;SDS011;6152;48.728;9.256;2023-02-23T13:37:27;10.30;;;3.67;;
12177;SDS011;6152;48.728;9.256;2023-02-23T13:40:10;5.53;;;3.50;;
12177;SDS011;6152;48.728;9.256;2023-02-23T13:42:54;6.80;;;3.25;;
12177;SDS011;6152;48.728;9.256;2023-02-23T13:50:49;5.35;;;2.80;;
12177;SDS011;6152;48.728;9.256;2023-02-23T13:55:59;5.40;;;3.20;;
12177;SDS011;6152;48.728;9.256;2023-02-23T13:58:31;6.97;;;3.30;;
12177;SDS011;6152;48.728;9.256;2023-02-23T14:01:13;5.45;;;2.60;;
12177;SDS011;6152;48.728;9.256;2023-02-23T14:03:54;6.75;;;2.60;;
12177;SDS011;6152;48.728;9.256;2023-02-23T14:06:23;4.45;;;2.58;;
12177;SDS011;6152;48.728;9.256;2023-02-23T14:09:11;6.22;;;2.80;;
12177;SDS011;6152;48.728;9.256;2023-02-23T14:14:14;6.03;;;2.28;;
12177;SDS011;6152;48.728;9.256;2023-02-23T14:25:47;5.28;;;3.55;;
12177;SDS011;6152;48.728;9.256;2023-02-23T14:30:59;7.45;;;3.80;;
12177;SDS011;6152;48.728;9.256;2023-02-23T14:33:48;5.70;;;3.85;;
12177;SDS011;6152;48.728;9.256;2023-02-23T14:44:07;10.02;;;4.93;;
12177;SDS011;6152;48.728;9.256;2023-02-23T14:46:48;5.43;;;3.90;;
12177;SDS011;6152;48.728;9.256;2023-02-23T14:49:26;6.93;;;3.95;;
12177;SDS011;6152;48.728;9.256;2023-02-23T14:51:56;8.38;;;4.88;;
12177;SDS011;6152;48.728;9.256;2023-02-23T14:54:30;9.27;;;5.10;;
12177;SDS011;6152;48.728;9.256;2023-02-23T14:57:02;10.50;;;5.38;;
12177;SDS011;6152;48.728;9.256;2023-02-23T14:59:40;6.30;;;4.68;;
12177;SDS011;6152;48.728;9.256;2023-02-23T15:04:40;7.63;;;4.50;;
12177;SDS011;6152;48.728;9.256;2023-02-23T15:07:08;10.82;;;5.32;;
12177;SDS011;6152;48.728;9.256;2023-02-23T15:09:49;10.32;;;4.30;;
12177;SDS011;6152;48.728;9.256;2023-02-23T15:12:18;6.88;;;4.78;;
12177;SDS011;6152;48.728;9.256;2023-02-23T15:14:54;8.23;;;4.35;;
12177;SDS011;6152;48.728;9.256;2023-02-23T15:17:26;8.63;;;5.13;;
12177;SDS011;6152;48.728;9.256;2023-02-23T15:20:05;9.52;;;4.22;;
12177;SDS011;6152;48.728;9.256;2023-02-23T15:22:37;6.07;;;4.07;;
12177;SDS011;6152;48.728;9.256;2023-02-23T15:25:22;6.40;;;3.72;;
12177;SDS011;6152;48.728;9.256;2023-02-23T15:27:51;12.10;;;3.88;;
12177;SDS011;6152;48.728;9.256;2023-02-23T15:33:00;6.03;;;3.95;;
12177;SDS011;6152;48.728;9.256;2023-02-23T15:35:26;7.40;;;4.55;;
12177;SDS011;6152;48.728;9.256;2023-02-23T15:37:54;6.75;;;4.07;;
12177;SDS011;6152;48.728;9.256;2023-02-23T15:40:22;9.70;;;4.50;;
12177;SDS011;6152;48.728;9.256;2023-02-23T15:42:54;7.63;;;4.05;;
12177;SDS011;6152;48.728;9.256;2023-02-23T15:45:29;7.68;;;3.97;;
12177;SDS011;6152;48.728;9.256;2023-02-23T15:48:05;5.57;;;3.60;;
12177;SDS011;6152;48.728;9.256;2023-02-23T15:50:42;8.43;;;3.17;;
12177;SDS011;6152;48.728;9.256;2023-02-23T15:55:55;6.63;;;3.17;;
12177;SDS011;6152;48.728;9.256;2023-02-23T15:58:28;6.40;;;3.38;;
12177;SDS011;6152;48.728;9.256;2023-02-23T16:00:57;8.20;;;3.58;;
12177;SDS011;6152;48.728;9.256;2023-02-23T16:03:34;2.58;;;2.22;;
12177;SDS011;6152;48.728;9.256;2023-02-23T16:06:07;3.95;;;2.25;;
12177;SDS011;6152;48.728;9.256;2023-02-23T16:09:01;7.55;;;2.10;;
12177;SDS011;6152;48.728;9.256;2023-02-23T16:14:31;5.43;;;2.38;;
12177;SDS011;6152;48.728;9.256;2023-02-23T16:17:06;5.50;;;2.35;;
12177;SDS011;6152;48.728;9.256;2023-02-23T16:19:40;6.85;;;3.25;;
12177;SDS011;6152;48.728;9.256;2023-02-23T16:22:13;6.03;;;3.22;;
12177;SDS011;6152;48.728;9.256;2023-02-23T16:25:03;9.50;;;3.30;;
12177;SDS011;6152;48.728;9.256;2023-02-23T16:27:35;8.15;;;3.22;;
12177;SDS011;6152;48.728;9.256;2023-02-23T16:30:19;5.57;;;2.83;;
12177;SDS011;6152;48.728;9.256;2023-02-23T16:32:48;4.32;;;2.70;;
12177;SDS011;6152;48.728;9.256;2023-02-23T16:35:42;6.75;;;3.05;;
12177;SDS011;6152;48.728;9.256;2023-02-23T16:38:53;7.68;;;3.30;;
12177;SDS011;6152;48.728;9.256;2023-02-23T16:41:03;9.30;;;3.47;;
12177;SDS011;6152;48.728;9.256;2023-02-23T16:43:31;7.78;;;3.63;;
12177;SDS011;6152;48.728;9.256;2023-02-23T16:45:59;9.07;;;3.35;;
12177;SDS011;6152;48.728;9.256;2023-02-23T16:48:26;8.27;;;3.70;;
12177;SDS011;6152;48.728;9.256;2023-02-23T16:50:52;7.20;;;3.72;;
12177;SDS011;6152;48.728;9.256;2023-02-23T16:53:18;7.65;;;4.00;;
12177;SDS011;6152;48.728;9.256;2023-02-23T16:55:48;9.63;;;4.38;;
12177;SDS011;6152;48.728;9.256;2023-02-23T16:58:24;4.32;;;3.42;;
12177;SDS011;6152;48.728;9.256;2023-02-23T17:00:54;10.43;;;4.72;;
12177;SDS011;6152;48.728;9.256;2023-02-23T17:03:24;7.10;;;4.60;;
12177;SDS011;6152;48.728;9.256;2023-02-23T17:05:52;8.80;;;4.78;;
12177;SDS011;6152;48.728;9.256;2023-02-23T17:08:18;7.95;;;4.90;;
12177;SDS011;6152;48.728;9.256;2023-02-23T17:10:45;12.55;;;5.45;;
12177;SDS011;6152;48.728;9.256;2023-02-23T17:13:18;8.30;;;5.32;;
12177;SDS011;6152;48.728;9.256;2023-02-23T17:15:47;11.18;;;5.00;;
12177;SDS011;6152;48.728;9.256;2023-02-23T17:18:22;11.85;;;5.40;;
12177;SDS011;6152;48.728;9.256;2023-02-23T17:20:53;9.20;;;5.07;;
12177;SDS011;6152;48.728;9.256;2023-02-23T17:23:20;10.68;;;5.30;;
12177;SDS011;6152;48.728;9.256;2023-02-23T17:25:52;7.80;;;4.65;;
12177;SDS011;6152;48.728;9.256;2023-02-23T17:28:19;8.75;;;4.97;;
12177;SDS011;6152;48.728;9.256;2023-02-23T17:30:46;10.73;;;4.75;;
12177;SDS011;6152;48.728;9.256;2023-02-23T17:33:12;9.15;;;4.82;;
12177;SDS011;6152;48.728;9.256;2023-02-23T17:35:39;6.50;;;4.78;;
12177;SDS011;6152;48.728;9.256;2023-02-23T17:38:05;10.07;;;4.97;;
12177;SDS011;6152;48.728;9.256;2023-02-23T17:40:32;7.97;;;4.43;;